createdAt,value
2018-05-10T00:01:15.131Z,15.20
2018-05-10T00:03:42.580Z,15.30
2018-05-10T00:06:10.810Z,15.30
2018-05-10T00:08:38.278Z,15.20
2018-05-10T00:11:05.730Z,15.20
2018-05-10T00:13:33.151Z,15.20
2018-05-10T00:16:00.611Z,15.00
2018-05-10T00:18:28.043Z,15.00
2018-05-10T00:20:55.461Z,15.00
2018-05-10T00:23:22.906Z,15.10
2018-05-10T00:25:50.359Z,15.10
2018-05-10T00:28:17.786Z,15.10
2018-05-10T00:30:45.230Z,15.10
2018-05-10T00:33:12.666Z,15.10
2018-05-10T00:35:40.864Z,15.10
2018-05-10T00:38:08.289Z,15.00
2018-05-10T00:40:35.722Z,15.10
2018-05-10T00:43:03.175Z,15.10
2018-05-10T00:45:30.612Z,15.00
2018-05-10T00:47:58.049Z,15.00
2018-05-10T00:50:25.488Z,15.00
2018-05-10T00:52:53.691Z,14.90
2018-05-10T00:55:21.153Z,14.90
2018-05-10T00:57:48.609Z,14.90
2018-05-10T01:00:16.043Z,14.90
2018-05-10T01:02:43.463Z,14.90
2018-05-10T01:05:10.906Z,14.90
2018-05-10T01:07:38.354Z,14.80
2018-05-10T01:10:05.784Z,14.70
2018-05-10T01:12:33.230Z,14.70
2018-05-10T01:15:00.753Z,14.70
2018-05-10T01:17:28.206Z,14.70
2018-05-10T01:19:55.639Z,14.70
2018-05-10T01:22:23.058Z,14.70
2018-05-10T01:24:50.504Z,14.60
2018-05-10T01:27:18.719Z,14.60
2018-05-10T01:29:46.164Z,14.60
2018-05-10T01:32:13.626Z,14.60
2018-05-10T01:34:41.850Z,14.60
2018-05-10T01:37:10.047Z,14.50
2018-05-10T01:39:37.474Z,14.40
2018-05-10T01:42:04.930Z,14.50
2018-05-10T01:44:32.371Z,14.50
2018-05-10T01:46:59.830Z,14.50
2018-05-10T01:49:27.258Z,14.60
2018-05-10T01:51:54.705Z,14.70
2018-05-10T01:54:22.114Z,14.70
2018-05-10T01:56:49.683Z,14.70
2018-05-10T01:59:17.118Z,14.70
2018-05-10T02:01:44.586Z,14.70
2018-05-10T02:04:12.021Z,14.70
2018-05-10T02:06:39.473Z,14.70
2018-05-10T02:09:06.910Z,14.60
2018-05-10T02:11:34.349Z,14.60
2018-05-10T02:14:02.552Z,14.40
2018-05-10T02:16:29.979Z,14.40
2018-05-10T02:18:57.416Z,14.40
2018-05-10T02:21:24.855Z,14.40
2018-05-10T02:23:52.287Z,14.30
2018-05-10T02:26:19.714Z,14.20
2018-05-10T02:28:47.142Z,14.00
2018-05-10T02:31:15.368Z,13.60
2018-05-10T02:33:42.801Z,13.50
2018-05-10T02:36:10.232Z,13.40
2018-05-10T02:38:37.678Z,13.30
2018-05-10T02:41:05.200Z,13.20
2018-05-10T02:43:33.323Z,13.20
2018-05-10T02:46:01.514Z,13.10
2018-05-10T02:48:28.972Z,13.10
2018-05-10T02:50:56.405Z,13.20
2018-05-10T02:53:24.625Z,13.30
2018-05-10T02:55:52.065Z,13.20
2018-05-10T02:58:19.511Z,13.30
2018-05-10T03:00:46.986Z,13.30
2018-05-10T03:03:14.415Z,13.30
2018-05-10T03:05:41.848Z,13.20
2018-05-10T03:08:09.291Z,13.10
2018-05-10T03:10:36.739Z,13.10
2018-05-10T03:13:04.166Z,13.10
2018-05-10T03:15:31.614Z,13.00
2018-05-10T03:17:59.051Z,13.10
2018-05-10T03:20:27.272Z,13.10
2018-05-10T03:22:54.747Z,13.10
2018-05-10T03:25:22.189Z,13.10
2018-05-10T03:27:49.649Z,13.20
2018-05-10T03:30:17.098Z,13.10
2018-05-10T03:32:44.534Z,13.10
2018-05-10T03:35:11.958Z,13.00
2018-05-10T03:37:39.390Z,12.90
2018-05-10T03:40:06.841Z,12.90
2018-05-10T03:42:34.279Z,12.90
2018-05-10T03:45:01.711Z,12.80
2018-05-10T03:47:29.152Z,12.80
2018-05-10T03:49:56.590Z,12.80
2018-05-10T03:52:24.022Z,12.80
2018-05-10T03:54:51.469Z,12.70
2018-05-10T03:57:18.895Z,12.60
2018-05-10T03:59:46.342Z,12.50
2018-05-10T04:02:13.853Z,12.50
2018-05-10T04:04:52.811Z,12.60
2018-05-10T04:07:32.085Z,12.60
2018-05-10T04:10:11.342Z,12.60
2018-05-10T04:12:38.814Z,12.70
2018-05-10T04:15:06.258Z,12.70
2018-05-10T04:17:33.739Z,12.80
2018-05-10T04:20:01.182Z,12.90
2018-05-10T04:22:28.623Z,13.00
2018-05-10T04:24:56.073Z,12.90
2018-05-10T04:27:23.539Z,12.90
2018-05-10T04:29:51.045Z,12.90
2018-05-10T04:32:18.406Z,12.80
2018-05-10T04:34:46.627Z,12.70
2018-05-10T04:37:14.058Z,12.60
2018-05-10T04:39:41.485Z,12.70
2018-05-10T04:42:08.935Z,12.70
2018-05-10T04:44:36.398Z,12.70
2018-05-10T04:47:03.812Z,12.80
2018-05-10T04:49:31.350Z,12.80
2018-05-10T04:51:58.786Z,12.80
2018-05-10T04:54:26.210Z,12.90
2018-05-10T04:56:53.654Z,13.00
2018-05-10T04:59:21.096Z,13.10
2018-05-10T05:01:48.534Z,13.20
2018-05-10T05:04:16.146Z,13.30
2018-05-10T05:06:43.602Z,13.40
2018-05-10T05:09:11.038Z,13.50
2018-05-10T05:11:38.490Z,13.50
2018-05-10T05:14:05.934Z,13.50
2018-05-10T05:16:33.366Z,13.60
2018-05-10T05:19:00.809Z,13.70
2018-05-10T05:21:28.278Z,13.80
2018-05-10T05:23:55.671Z,14.00
2018-05-10T05:26:23.132Z,14.10
2018-05-10T05:28:50.572Z,14.30
2018-05-10T05:31:17.995Z,14.50
2018-05-10T05:33:46.204Z,14.80
2018-05-10T05:36:13.635Z,14.80
2018-05-10T05:38:41.083Z,14.90
2018-05-10T05:41:08.516Z,15.00
2018-05-10T05:43:36.027Z,15.20
2018-05-10T05:46:03.378Z,15.30
2018-05-10T05:48:30.835Z,15.40
2018-05-10T05:50:58.247Z,15.50
2018-05-10T05:53:25.678Z,15.60
2018-05-10T05:55:53.131Z,15.60
2018-05-10T05:58:20.558Z,15.60
2018-05-10T06:00:48.012Z,15.50
2018-05-10T06:03:15.419Z,15.60
2018-05-10T06:05:42.877Z,15.60
2018-05-10T06:08:10.330Z,15.70
2018-05-10T06:10:37.767Z,15.90
2018-05-10T06:13:05.203Z,15.90
2018-05-10T06:15:32.728Z,15.90
2018-05-10T06:18:00.847Z,16.20
2018-05-10T06:20:28.274Z,16.10
2018-05-10T06:22:55.702Z,16.30
2018-05-10T06:25:23.142Z,16.40
2018-05-10T06:27:50.565Z,16.60
2018-05-10T06:30:18.006Z,16.70
2018-05-10T06:32:45.454Z,16.80
2018-05-10T06:35:12.906Z,16.90
2018-05-10T06:37:40.312Z,17.00
2018-05-10T06:40:07.806Z,17.10
2018-05-10T06:42:35.241Z,17.20
2018-05-10T06:45:02.679Z,17.30
2018-05-10T06:47:30.107Z,17.40
2018-05-10T06:49:57.554Z,17.40
2018-05-10T06:52:25.742Z,17.70
2018-05-10T06:54:53.166Z,17.60
2018-05-10T06:57:20.601Z,17.80
2018-05-10T06:59:48.046Z,17.90
2018-05-10T07:02:15.586Z,18.00
2018-05-10T07:04:42.990Z,18.10
2018-05-10T07:07:10.415Z,18.20
2018-05-10T07:09:37.929Z,18.30
2018-05-10T07:12:05.289Z,18.40
2018-05-10T07:14:33.469Z,18.60
2018-05-10T07:17:00.926Z,18.50
2018-05-10T07:19:28.359Z,18.60
2018-05-10T07:21:55.786Z,18.70
2018-05-10T07:24:23.224Z,18.60
2018-05-10T07:26:50.650Z,18.70
2018-05-10T07:29:18.094Z,18.70
2018-05-10T07:31:46.304Z,18.80
2018-05-10T07:34:13.731Z,18.80
2018-05-10T07:36:41.173Z,19.00
2018-05-10T07:39:09.372Z,19.20
2018-05-10T07:41:36.801Z,19.10
2018-05-10T07:44:04.230Z,19.40
2018-05-10T07:46:31.661Z,19.50
2018-05-10T07:48:59.078Z,19.60
2018-05-10T07:51:26.506Z,19.60
2018-05-10T07:53:53.954Z,19.60
2018-05-10T07:56:21.403Z,19.80
2018-05-10T07:58:48.867Z,19.90
2018-05-10T08:01:16.305Z,20.10
2018-05-10T08:03:43.770Z,20.30
2018-05-10T08:06:11.198Z,20.40
2018-05-10T08:08:38.746Z,20.40
2018-05-10T08:11:06.185Z,20.70
2018-05-10T08:13:33.615Z,20.90
2018-05-10T08:16:01.064Z,21.10
2018-05-10T08:18:28.507Z,21.10
2018-05-10T08:20:55.930Z,21.30
2018-05-10T08:23:24.138Z,21.60
2018-05-10T08:25:51.562Z,21.60
2018-05-10T08:28:18.995Z,21.70
2018-05-10T08:30:46.462Z,21.70
2018-05-10T08:33:13.906Z,21.60
2018-05-10T08:35:41.345Z,21.30
2018-05-10T08:38:08.777Z,21.00
2018-05-10T08:40:36.230Z,21.00
2018-05-10T08:43:03.658Z,21.20
2018-05-10T08:45:31.870Z,21.20
2018-05-10T08:47:59.322Z,21.20
2018-05-10T08:50:26.772Z,21.10
2018-05-10T08:52:55.119Z,21.10
2018-05-10T08:55:22.558Z,20.90
2018-05-10T08:57:49.979Z,21.00
2018-05-10T09:00:17.428Z,21.20
2018-05-10T09:02:44.877Z,21.30
2018-05-10T09:05:12.309Z,21.40
2018-05-10T09:07:40.505Z,21.30
2018-05-10T09:10:07.921Z,21.20
2018-05-10T09:12:35.370Z,21.30
2018-05-10T09:15:02.815Z,21.40
2018-05-10T09:17:30.262Z,21.30
2018-05-10T09:19:57.691Z,21.20
2018-05-10T09:22:25.146Z,21.10
2018-05-10T09:24:52.674Z,21.10
2018-05-10T09:27:20.115Z,21.00
2018-05-10T09:29:47.530Z,20.90
2018-05-10T09:32:14.982Z,20.90
2018-05-10T09:34:42.422Z,21.00
2018-05-10T09:37:09.847Z,21.00
2018-05-10T09:39:37.286Z,21.10
2018-05-10T09:42:04.722Z,21.30
2018-05-10T09:44:32.175Z,21.40
2018-05-10T09:46:59.595Z,21.40
2018-05-10T09:49:27.036Z,21.40
2018-05-10T09:51:54.451Z,21.40
2018-05-10T09:54:21.898Z,21.60
2018-05-10T09:56:49.348Z,21.90
2018-05-10T09:59:16.802Z,22.10
2018-05-10T10:01:44.268Z,22.20
2018-05-10T10:04:11.699Z,22.30
2018-05-10T10:06:39.138Z,22.50
2018-05-10T10:09:06.581Z,22.80
2018-05-10T10:11:34.076Z,22.90
2018-05-10T10:14:01.430Z,22.90
2018-05-10T10:16:28.878Z,22.80
2018-05-10T10:18:57.062Z,22.60
2018-05-10T10:21:24.500Z,22.50
2018-05-10T10:23:51.923Z,22.40
2018-05-10T10:26:19.394Z,22.40
2018-05-10T10:28:46.830Z,22.30
2018-05-10T10:31:14.286Z,22.40
2018-05-10T10:34:01.910Z,22.50
2018-05-10T10:39:13.650Z,22.70
2018-05-10T10:41:41.350Z,22.80
2018-05-10T10:44:08.804Z,23.20
2018-05-10T10:46:36.234Z,23.60
2018-05-10T10:49:03.658Z,23.70
2018-05-10T10:51:31.094Z,23.70
2018-05-10T10:53:58.656Z,23.70
2018-05-10T10:56:26.031Z,23.60
2018-05-10T10:58:53.467Z,23.70
2018-05-10T11:01:20.939Z,23.70
2018-05-10T11:03:48.498Z,24.30
2018-05-10T11:06:15.935Z,25.30
2018-05-10T11:08:43.358Z,26.50
2018-05-10T11:11:10.795Z,27.60
2018-05-10T11:13:38.226Z,27.80
2018-05-10T11:16:05.665Z,28.00
2018-05-10T11:18:33.116Z,28.00
2018-05-10T11:21:00.550Z,28.10
2018-05-10T11:23:28.013Z,28.70
2018-05-10T11:25:55.537Z,29.00
2018-05-10T11:28:22.973Z,29.20
2018-05-10T11:30:50.403Z,28.90
2018-05-10T11:33:17.860Z,28.80
2018-05-10T11:35:45.262Z,29.00
2018-05-10T11:38:12.694Z,29.40
2018-05-10T11:40:40.136Z,29.50
2018-05-10T11:43:07.588Z,29.50
2018-05-10T11:45:35.037Z,29.80
2018-05-10T11:48:02.487Z,29.20
2018-05-10T11:50:29.916Z,29.10
2018-05-10T11:52:57.354Z,29.70
2018-05-10T11:55:24.782Z,29.90
2018-05-10T11:57:52.244Z,29.70
2018-05-10T12:00:19.689Z,29.40
2018-05-10T12:02:47.167Z,30.00
2018-05-10T12:05:14.608Z,31.20
2018-05-10T12:07:42.034Z,31.40
2018-05-10T12:10:09.487Z,31.10
2018-05-10T12:12:36.935Z,30.30
2018-05-10T12:15:04.372Z,29.40
2018-05-10T12:17:31.823Z,28.50
2018-05-10T12:19:59.271Z,27.50
2018-05-10T12:22:26.723Z,26.90
2018-05-10T12:24:54.154Z,26.30
2018-05-10T12:27:21.623Z,26.30
2018-05-10T12:29:49.090Z,26.20
2018-05-10T12:32:16.542Z,26.80
2018-05-10T12:34:43.978Z,27.60
2018-05-10T12:37:11.414Z,29.30
2018-05-10T12:39:38.859Z,31.80
2018-05-10T12:42:07.099Z,34.30
2018-05-10T12:44:34.523Z,34.20
2018-05-10T12:47:01.963Z,35.20
2018-05-10T12:49:29.394Z,36.10
2018-05-10T12:51:56.838Z,35.30
2018-05-10T12:54:24.318Z,33.40
2018-05-10T12:56:51.776Z,32.30
2018-05-10T12:59:19.203Z,31.40
2018-05-10T13:01:46.647Z,30.50
2018-05-10T13:04:14.087Z,29.70
2018-05-10T13:06:41.574Z,29.30
2018-05-10T13:09:08.986Z,29.00
2018-05-10T13:11:36.423Z,30.40
2018-05-10T13:14:04.631Z,35.10
2018-05-10T13:16:32.054Z,35.00
2018-05-10T13:18:59.498Z,36.60
2018-05-10T13:21:26.946Z,36.60
2018-05-10T13:23:54.383Z,37.10
2018-05-10T13:26:21.822Z,37.70
2018-05-10T13:28:49.277Z,38.50
2018-05-10T13:31:16.704Z,39.00
2018-05-10T13:33:44.146Z,39.10
2018-05-10T13:36:12.335Z,40.60
2018-05-10T13:38:39.788Z,40.50
2018-05-10T13:41:07.267Z,41.20
2018-05-10T13:43:34.676Z,41.10
2018-05-10T13:46:02.903Z,39.30
2018-05-10T13:48:31.118Z,40.30
2018-05-10T13:50:58.563Z,40.20
2018-05-10T13:53:25.994Z,40.00
2018-05-10T13:55:53.423Z,38.40
2018-05-10T13:58:20.879Z,36.80
2018-05-10T14:00:49.125Z,37.30
2018-05-10T14:03:16.539Z,37.30
2018-05-10T14:05:43.987Z,37.70
2018-05-10T14:08:11.435Z,37.30
2018-05-10T14:10:38.867Z,37.30
2018-05-10T14:13:06.299Z,37.40
2018-05-10T14:15:33.771Z,36.50
2018-05-10T14:18:01.206Z,35.90
2018-05-10T14:20:28.642Z,34.60
2018-05-10T14:22:56.083Z,32.90
2018-05-10T14:25:23.529Z,32.00
2018-05-10T14:27:50.955Z,31.20
2018-05-10T14:30:18.395Z,30.60
2018-05-10T14:32:45.851Z,29.80
2018-05-10T14:35:13.270Z,29.30
2018-05-10T14:37:40.728Z,29.50
2018-05-10T14:40:08.168Z,29.20
2018-05-10T14:42:35.611Z,29.00
2018-05-10T14:45:03.891Z,29.20
2018-05-10T14:47:31.346Z,29.10
2018-05-10T14:49:58.795Z,29.80
2018-05-10T14:52:27.001Z,32.90
2018-05-10T14:54:54.455Z,32.90
2018-05-10T14:57:21.902Z,34.50
2018-05-10T14:59:49.385Z,34.80
2018-05-10T15:02:17.549Z,33.20
2018-05-10T15:04:44.975Z,33.20
2018-05-10T15:07:13.196Z,32.50
2018-05-10T15:09:40.638Z,32.40
2018-05-10T15:12:08.102Z,31.40
2018-05-10T15:14:35.526Z,30.30
2018-05-10T15:17:02.980Z,29.40
2018-05-10T15:19:30.419Z,28.70
2018-05-10T15:21:57.853Z,27.90
2018-05-10T15:24:25.291Z,27.20
2018-05-10T15:26:52.719Z,26.40
2018-05-10T15:29:20.309Z,25.60
2018-05-10T15:31:47.750Z,25.10
2018-05-10T15:34:15.177Z,24.70
2018-05-10T15:36:42.615Z,24.10
2018-05-10T15:39:10.131Z,23.40
2018-05-10T15:41:37.510Z,23.00
2018-05-10T15:44:04.943Z,22.80
2018-05-10T15:46:32.388Z,22.70
2018-05-10T15:48:59.836Z,22.50
2018-05-10T15:51:27.362Z,22.30
2018-05-10T15:53:55.580Z,21.90
2018-05-10T15:56:23.148Z,21.80
2018-05-10T15:58:50.582Z,21.80
2018-05-10T16:01:18.023Z,21.80
2018-05-10T16:03:46.252Z,21.80
2018-05-10T16:06:13.685Z,21.80
2018-05-10T16:08:41.125Z,22.60
2018-05-10T16:11:08.571Z,23.50
2018-05-10T16:13:36.022Z,23.90
2018-05-10T16:16:03.446Z,24.20
2018-05-10T16:18:30.911Z,26.60
2018-05-10T16:20:58.342Z,30.30
2018-05-10T16:23:25.787Z,31.60
2018-05-10T16:25:53.225Z,30.30
2018-05-10T16:28:20.667Z,31.20
2018-05-10T16:30:48.854Z,33.40
2018-05-10T16:33:16.292Z,33.40
2018-05-10T16:35:43.734Z,33.60
2018-05-10T16:38:11.172Z,33.60
2018-05-10T16:40:38.608Z,33.30
2018-05-10T16:43:06.046Z,31.30
2018-05-10T16:45:33.472Z,29.00
2018-05-10T16:48:01.669Z,26.30
2018-05-10T16:50:29.133Z,26.20
2018-05-10T16:52:56.562Z,25.30
2018-05-10T16:55:24.023Z,24.70
2018-05-10T16:57:51.479Z,24.10
2018-05-10T17:00:18.908Z,23.60
2018-05-10T17:02:46.365Z,23.20
2018-05-10T17:05:13.794Z,23.00
2018-05-10T17:07:41.242Z,22.30
2018-05-10T17:10:08.683Z,22.00
2018-05-10T17:12:36.128Z,21.80
2018-05-10T17:15:03.576Z,21.60
2018-05-10T17:17:31.770Z,21.30
2018-05-10T17:19:59.226Z,21.20
2018-05-10T17:22:26.694Z,21.10
2018-05-10T17:24:54.139Z,21.00
2018-05-10T17:27:21.579Z,20.90
2018-05-10T17:29:49.018Z,20.70
2018-05-10T17:32:16.461Z,20.60
2018-05-10T17:34:43.906Z,20.40
2018-05-10T17:37:11.362Z,20.40
2018-05-10T17:39:38.803Z,20.40
2018-05-10T17:42:06.252Z,20.30
2018-05-10T17:44:33.678Z,20.20
2018-05-10T17:47:01.893Z,19.90
2018-05-10T17:49:29.336Z,19.80
2018-05-10T17:51:56.799Z,19.80
2018-05-10T17:54:24.234Z,19.70
2018-05-10T17:56:51.696Z,19.60
2018-05-10T17:59:19.120Z,19.60
2018-05-10T18:01:46.572Z,19.50
2018-05-10T18:04:13.999Z,19.50
2018-05-10T18:06:41.448Z,19.40
2018-05-10T18:09:08.895Z,19.40
2018-05-10T18:11:36.353Z,19.40
2018-05-10T18:14:03.791Z,19.30
2018-05-10T18:16:31.255Z,19.30
2018-05-10T18:18:58.691Z,19.20
2018-05-10T18:21:26.932Z,19.00
2018-05-10T18:23:54.370Z,19.00
2018-05-10T18:26:21.815Z,18.90
2018-05-10T18:28:49.249Z,18.70
2018-05-10T18:31:16.681Z,18.70
2018-05-10T18:33:44.147Z,18.50
2018-05-10T18:36:11.555Z,18.60
2018-05-10T18:38:38.998Z,18.60
2018-05-10T18:41:06.435Z,18.60
2018-05-10T18:43:33.887Z,18.60
2018-05-10T18:46:01.456Z,18.60
2018-05-10T18:48:28.878Z,18.60
2018-05-10T18:50:56.314Z,18.70
2018-05-10T18:53:23.755Z,18.60
2018-05-10T18:55:51.195Z,18.50
2018-05-10T18:58:18.661Z,18.50
2018-05-10T19:00:46.093Z,18.40
2018-05-10T19:03:13.514Z,18.20
2018-05-10T19:05:40.946Z,18.00
2018-05-10T19:08:08.378Z,17.80
2018-05-10T19:10:35.823Z,17.70
2018-05-10T19:13:03.266Z,17.40
2018-05-10T19:15:30.725Z,17.10
2018-05-10T19:17:58.126Z,16.80
2018-05-10T19:20:25.578Z,16.70
2018-05-10T19:22:53.027Z,16.50
2018-05-10T19:25:20.494Z,16.30
2018-05-10T19:27:47.933Z,16.30
2018-05-10T19:30:15.376Z,16.20
2018-05-10T19:32:42.794Z,16.10
2018-05-10T19:35:10.230Z,16.00
2018-05-10T19:37:37.679Z,15.90
2018-05-10T19:40:05.119Z,15.70
2018-05-10T19:42:32.551Z,15.50
2018-05-10T19:44:59.984Z,15.30
2018-05-10T19:47:28.174Z,15.20
2018-05-10T19:49:55.617Z,15.10
2018-05-10T19:52:23.326Z,15.10
2018-05-10T19:54:50.781Z,15.00
2018-05-10T19:57:19.057Z,15.00
2018-05-10T19:59:46.478Z,15.00
2018-05-10T20:02:13.907Z,14.90
2018-05-10T20:04:41.334Z,14.80
2018-05-10T20:07:08.770Z,14.60
2018-05-10T20:09:36.226Z,14.40
2018-05-10T20:12:03.680Z,14.10
2018-05-10T20:14:31.102Z,13.90
2018-05-10T20:16:58.627Z,13.80
2018-05-10T20:19:25.986Z,13.70
2018-05-10T20:21:53.432Z,13.60
2018-05-10T20:24:21.638Z,13.50
2018-05-10T20:26:49.075Z,13.50
2018-05-10T20:29:16.534Z,13.40
2018-05-10T20:31:43.957Z,13.40
2018-05-10T20:34:11.405Z,13.30
2018-05-10T20:36:38.866Z,13.20
2018-05-10T20:39:06.307Z,13.20
2018-05-10T20:41:33.756Z,13.20
2018-05-10T20:44:01.166Z,13.20
2018-05-10T20:46:28.618Z,13.20
2018-05-10T20:48:56.068Z,13.10
2018-05-10T20:51:23.508Z,13.10
2018-05-10T20:53:50.954Z,13.20
2018-05-10T20:56:18.402Z,13.20
2018-05-10T20:58:46.607Z,13.30
2018-05-10T21:01:14.051Z,13.20
2018-05-10T21:03:41.562Z,13.30
2018-05-10T21:06:08.918Z,13.40
2018-05-10T21:08:36.346Z,13.40
2018-05-10T21:11:03.810Z,13.40
2018-05-10T21:13:31.253Z,13.40
2018-05-10T21:15:58.695Z,13.50
2018-05-10T21:18:26.149Z,13.50
2018-05-10T21:20:53.590Z,13.50
2018-05-10T21:23:21.799Z,13.60
2018-05-10T21:25:49.236Z,13.60
2018-05-10T21:28:16.662Z,13.60
2018-05-10T21:30:44.857Z,13.50
2018-05-10T21:33:12.306Z,13.50
2018-05-10T21:35:39.746Z,13.40
2018-05-10T21:38:07.171Z,13.40
2018-05-10T21:40:34.658Z,13.30
2018-05-10T21:43:02.085Z,13.30
2018-05-10T21:45:29.534Z,13.40
2018-05-10T21:47:56.985Z,13.40
2018-05-10T21:50:27.382Z,13.40
2018-05-10T21:52:55.623Z,13.40
2018-05-10T21:55:23.051Z,13.40
2018-05-10T21:57:50.497Z,13.50
2018-05-10T22:00:17.990Z,13.40
2018-05-10T22:02:45.435Z,13.40
2018-05-10T22:05:12.874Z,13.30
2018-05-10T22:07:40.322Z,13.30
2018-05-10T22:10:07.749Z,13.30
2018-05-10T22:12:35.190Z,13.40
2018-05-10T22:15:02.622Z,13.40
2018-05-10T22:17:30.058Z,13.40
2018-05-10T22:19:57.496Z,13.20
2018-05-10T22:22:24.934Z,13.20
2018-05-10T22:24:53.150Z,13.30
2018-05-10T22:27:20.588Z,13.20
2018-05-10T22:29:48.044Z,13.20
2018-05-10T22:32:15.466Z,13.20
2018-05-10T22:34:42.903Z,13.20
2018-05-10T22:37:10.351Z,13.20
2018-05-10T22:39:37.794Z,13.20
2018-05-10T22:42:05.226Z,13.10
2018-05-10T22:44:32.675Z,13.10
2018-05-10T22:47:00.210Z,13.10
2018-05-10T22:49:27.702Z,13.00
2018-05-10T22:51:55.137Z,12.90
2018-05-10T22:54:22.590Z,12.90
2018-05-10T22:56:50.044Z,12.90
2018-05-10T22:59:18.266Z,12.60
2018-05-10T23:01:45.726Z,12.50
2018-05-10T23:04:13.162Z,12.40
2018-05-10T23:06:40.613Z,12.30
2018-05-10T23:09:08.050Z,12.30
2018-05-10T23:11:35.492Z,12.30
2018-05-10T23:14:02.923Z,12.20
2018-05-10T23:16:30.380Z,12.20
2018-05-10T23:18:57.816Z,12.10
2018-05-10T23:21:25.281Z,12.10
2018-05-10T23:23:52.718Z,12.10
2018-05-10T23:26:20.161Z,12.10
2018-05-10T23:28:48.350Z,12.00
2018-05-10T23:31:15.995Z,11.90
2018-05-10T23:33:43.438Z,12.00
2018-05-10T23:36:10.862Z,11.90
2018-05-10T23:38:38.307Z,11.90
2018-05-10T23:41:05.771Z,11.90
2018-05-10T23:43:33.209Z,11.90
2018-05-10T23:46:00.646Z,11.90
2018-05-10T23:48:28.102Z,11.90
2018-05-10T23:50:55.558Z,11.90
2018-05-10T23:53:23.003Z,11.80
2018-05-10T23:55:51.236Z,11.80
2018-05-10T23:58:19.492Z,11.90
